sensor_id;sensor_type;location;lat;lon;timestamp;temperature;humidity
12911;DHT22;6523;49.758;6.120;2022-09-12T00:01:25;13.00;99.90
12911;DHT22;6523;49.758;6.120;2022-09-12T00:03:53;13.10;99.90
12911;DHT22;6523;49.758;6.120;2022-09-12T00:06:28;13.10;99.90
12911;DHT22;6523;49.758;6.120;2022-09-12T00:08:56;13.00;99.90
12911;DHT22;6523;49.758;6.120;2022-09-12T00:11:22;13.00;99.90
12911;DHT22;6523;49.758;6.120;2022-09-12T00:13:49;13.00;99.90
12911;DHT22;6523;49.758;6.120;2022-09-12T00:16:25;13.00;99.90
12911;DHT22;6523;49.758;6.120;2022-09-12T00:18:52;12.90;99.90
12911;DHT22;6523;49.758;6.120;2022-09-12T00:21:20;13.10;99.90
12911;DHT22;6523;49.758;6.120;2022-09-12T00:23:46;12.90;99.90
12911;DHT22;6523;49.758;6.120;2022-09-12T00:26:12;13.00;99.90
12911;DHT22;6523;49.758;6.120;2022-09-12T00:28:39;13.10;99.90
12911;DHT22;6523;49.758;6.120;2022-09-12T00:31:08;13.10;99.90
12911;DHT22;6523;49.758;6.120;2022-09-12T00:33:34;13.00;99.90
12911;DHT22;6523;49.758;6.120;2022-09-12T00:36:04;13.10;99.90
12911;DHT22;6523;49.758;6.120;2022-09-12T00:38:31;13.00;99.90
12911;DHT22;6523;49.758;6.120;2022-09-12T00:40:56;12.90;99.90
12911;DHT22;6523;49.758;6.120;2022-09-12T00:43:38;12.80;99.90
12911;DHT22;6523;49.758;6.120;2022-09-12T00:46:20;12.70;99.90
12911;DHT22;6523;49.758;6.120;2022-09-12T00:49:25;12.60;99.90
12911;DHT22;6523;49.758;6.120;2022-09-12T00:51:47;12.80;99.90
12911;DHT22;6523;49.758;6.120;2022-09-12T00:54:19;12.80;99.90
12911;DHT22;6523;49.758;6.120;2022-09-12T00:56:48;12.90;99.90
12911;DHT22;6523;49.758;6.120;2022-09-12T00:59:19;12.90;99.90
12911;DHT22;6523;49.758;6.120;2022-09-12T01:01:47;12.80;99.90
12911;DHT22;6523;49.758;6.120;2022-09-12T01:04:14;12.70;99.90
12911;DHT22;6523;49.758;6.120;2022-09-12T01:06:42;12.70;99.90
12911;DHT22;6523;49.758;6.120;2022-09-12T01:09:13;12.70;99.90
12911;DHT22;6523;49.758;6.120;2022-09-12T01:11:40;12.70;99.90
12911;DHT22;6523;49.758;6.120;2022-09-12T01:14:07;12.70;99.90
12911;DHT22;6523;49.758;6.120;2022-09-12T01:16:37;12.70;99.90
12911;DHT22;6523;49.758;6.120;2022-09-12T01:22:35;12.70;99.90
12911;DHT22;6523;49.758;6.120;2022-09-12T01:25:09;12.80;99.90
12911;DHT22;6523;49.758;6.120;2022-09-12T01:31:16;12.70;99.90
12911;DHT22;6523;49.758;6.120;2022-09-12T01:39:02;12.50;99.90
12911;DHT22;6523;49.758;6.120;2022-09-12T01:41:55;12.50;99.90
12911;DHT22;6523;49.758;6.120;2022-09-12T01:44:48;12.40;99.90
12911;DHT22;6523;49.758;6.120;2022-09-12T01:47:23;12.40;99.90
12911;DHT22;6523;49.758;6.120;2022-09-12T01:52:42;12.50;99.90
12911;DHT22;6523;49.758;6.120;2022-09-12T01:55:20;12.60;99.90
12911;DHT22;6523;49.758;6.120;2022-09-12T01:57:57;12.60;99.90
12911;DHT22;6523;49.758;6.120;2022-09-12T02:00:25;12.60;99.90
12911;DHT22;6523;49.758;6.120;2022-09-12T02:02:57;12.60;99.90
12911;DHT22;6523;49.758;6.120;2022-09-12T02:05:33;12.50;99.90
12911;DHT22;6523;49.758;6.120;2022-09-12T02:08:07;12.50;99.90
12911;DHT22;6523;49.758;6.120;2022-09-12T02:10:40;12.40;99.90
12911;DHT22;6523;49.758;6.120;2022-09-12T02:13:24;12.50;99.90
12911;DHT22;6523;49.758;6.120;2022-09-12T02:15:56;12.50;99.90
12911;DHT22;6523;49.758;6.120;2022-09-12T02:18:24;12.60;99.90
12911;DHT22;6523;49.758;6.120;2022-09-12T02:20:53;12.60;99.90
12911;DHT22;6523;49.758;6.120;2022-09-12T02:23:22;12.50;99.90
12911;DHT22;6523;49.758;6.120;2022-09-12T02:25:52;12.50;99.90
12911;DHT22;6523;49.758;6.120;2022-09-12T02:28:48;12.50;99.90
12911;DHT22;6523;49.758;6.120;2022-09-12T02:31:27;12.50;99.90
12911;DHT22;6523;49.758;6.120;2022-09-12T02:39:32;12.40;99.90
12911;DHT22;6523;49.758;6.120;2022-09-12T02:41:59;12.40;99.90
12911;DHT22;6523;49.758;6.120;2022-09-12T02:44:27;12.30;99.90
12911;DHT22;6523;49.758;6.120;2022-09-12T02:46:58;12.10;99.90
12911;DHT22;6523;49.758;6.120;2022-09-12T02:49:25;12.00;99.90
12911;DHT22;6523;49.758;6.120;2022-09-12T02:51:51;12.10;99.90
12911;DHT22;6523;49.758;6.120;2022-09-12T02:54:18;12.30;99.90
12911;DHT22;6523;49.758;6.120;2022-09-12T02:56:45;12.40;99.90
12911;DHT22;6523;49.758;6.120;2022-09-12T02:59:17;12.30;99.90
12911;DHT22;6523;49.758;6.120;2022-09-12T03:15:32;12.30;99.90
12911;DHT22;6523;49.758;6.120;2022-09-12T03:21:01;12.30;99.90
12911;DHT22;6523;49.758;6.120;2022-09-12T03:24:19;12.40;99.90
12911;DHT22;6523;49.758;6.120;2022-09-12T03:26:35;12.30;99.90
12911;DHT22;6523;49.758;6.120;2022-09-12T03:29:04;12.30;99.90
12911;DHT22;6523;49.758;6.120;2022-09-12T03:31:31;12.30;99.90
12911;DHT22;6523;49.758;6.120;2022-09-12T03:33:58;12.30;99.90
12911;DHT22;6523;49.758;6.120;2022-09-12T03:36:27;12.30;99.90
12911;DHT22;6523;49.758;6.120;2022-09-12T03:38:53;12.30;99.90
12911;DHT22;6523;49.758;6.120;2022-09-12T03:41:18;12.30;99.90
12911;DHT22;6523;49.758;6.120;2022-09-12T03:43:44;12.30;99.90
12911;DHT22;6523;49.758;6.120;2022-09-12T03:46:10;12.30;99.90
12911;DHT22;6523;49.758;6.120;2022-09-12T03:48:36;12.30;99.90
12911;DHT22;6523;49.758;6.120;2022-09-12T03:51:03;12.40;99.90
12911;DHT22;6523;49.758;6.120;2022-09-12T03:53:30;12.30;99.90
12911;DHT22;6523;49.758;6.120;2022-09-12T03:55:56;12.20;99.90
12911;DHT22;6523;49.758;6.120;2022-09-12T03:58:23;12.10;99.90
12911;DHT22;6523;49.758;6.120;2022-09-12T04:00:48;12.10;99.90
12911;DHT22;6523;49.758;6.120;2022-09-12T04:03:14;12.30;99.90
12911;DHT22;6523;49.758;6.120;2022-09-12T04:05:40;12.20;99.90
12911;DHT22;6523;49.758;6.120;2022-09-12T04:08:05;12.20;99.90
12911;DHT22;6523;49.758;6.120;2022-09-12T04:10:31;12.10;99.90
12911;DHT22;6523;49.758;6.120;2022-09-12T04:12:56;12.00;99.90
12911;DHT22;6523;49.758;6.120;2022-09-12T04:15:22;11.80;99.90
12911;DHT22;6523;49.758;6.120;2022-09-12T04:17:48;11.80;99.90
12911;DHT22;6523;49.758;6.120;2022-09-12T04:20:13;11.90;99.90
12911;DHT22;6523;49.758;6.120;2022-09-12T04:22:39;12.00;99.90
12911;DHT22;6523;49.758;6.120;2022-09-12T04:25:05;11.70;99.90
12911;DHT22;6523;49.758;6.120;2022-09-12T04:27:31;11.90;99.90
12911;DHT22;6523;49.758;6.120;2022-09-12T04:29:57;12.00;99.90
12911;DHT22;6523;49.758;6.120;2022-09-12T04:32:24;12.00;99.90
12911;DHT22;6523;49.758;6.120;2022-09-12T04:34:50;11.90;99.90
12911;DHT22;6523;49.758;6.120;2022-09-12T04:37:16;11.80;99.90
12911;DHT22;6523;49.758;6.120;2022-09-12T04:39:42;11.80;99.90
12911;DHT22;6523;49.758;6.120;2022-09-12T04:42:08;11.70;99.90
12911;DHT22;6523;49.758;6.120;2022-09-12T04:44:33;11.80;99.90
12911;DHT22;6523;49.758;6.120;2022-09-12T04:46:59;11.80;99.90
12911;DHT22;6523;49.758;6.120;2022-09-12T04:49:24;11.80;99.90
12911;DHT22;6523;49.758;6.120;2022-09-12T04:51:52;11.70;99.90
12911;DHT22;6523;49.758;6.120;2022-09-12T04:54:18;11.70;99.90
12911;DHT22;6523;49.758;6.120;2022-09-12T04:56:46;11.80;99.90
12911;DHT22;6523;49.758;6.120;2022-09-12T04:59:14;11.80;99.90
12911;DHT22;6523;49.758;6.120;2022-09-12T05:01:40;11.80;99.90
12911;DHT22;6523;49.758;6.120;2022-09-12T05:04:07;11.90;99.90
12911;DHT22;6523;49.758;6.120;2022-09-12T05:06:35;11.80;99.90
12911;DHT22;6523;49.758;6.120;2022-09-12T05:09:03;11.50;99.90
12911;DHT22;6523;49.758;6.120;2022-09-12T05:11:31;11.50;99.90
12911;DHT22;6523;49.758;6.120;2022-09-12T05:13:57;11.40;99.90
12911;DHT22;6523;49.758;6.120;2022-09-12T05:16:24;11.60;99.90
12911;DHT22;6523;49.758;6.120;2022-09-12T05:18:50;11.80;99.90
12911;DHT22;6523;49.758;6.120;2022-09-12T05:21:18;11.80;99.90
12911;DHT22;6523;49.758;6.120;2022-09-12T05:23:44;11.90;99.90
12911;DHT22;6523;49.758;6.120;2022-09-12T05:26:13;11.80;99.90
12911;DHT22;6523;49.758;6.120;2022-09-12T05:28:39;11.70;99.90
12911;DHT22;6523;49.758;6.120;2022-09-12T05:31:16;11.80;99.90
12911;DHT22;6523;49.758;6.120;2022-09-12T05:33:44;11.70;99.90
12911;DHT22;6523;49.758;6.120;2022-09-12T05:36:15;11.50;99.90
12911;DHT22;6523;49.758;6.120;2022-09-12T05:38:42;11.60;99.90
12911;DHT22;6523;49.758;6.120;2022-09-12T05:41:22;11.60;99.90
12911;DHT22;6523;49.758;6.120;2022-09-12T05:43:57;11.60;99.90
12911;DHT22;6523;49.758;6.120;2022-09-12T05:46:25;11.50;99.90
12911;DHT22;6523;49.758;6.120;2022-09-12T05:48:52;11.40;99.90
12911;DHT22;6523;49.758;6.120;2022-09-12T05:51:21;11.30;99.90
12911;DHT22;6523;49.758;6.120;2022-09-12T05:53:50;11.20;99.90
12911;DHT22;6523;49.758;6.120;2022-09-12T05:56:19;11.30;99.90
12911;DHT22;6523;49.758;6.120;2022-09-12T05:58:46;11.00;99.90
12911;DHT22;6523;49.758;6.120;2022-09-12T06:01:15;10.80;99.90
12911;DHT22;6523;49.758;6.120;2022-09-12T06:03:44;11.20;99.90
12911;DHT22;6523;49.758;6.120;2022-09-12T06:06:11;11.30;99.90
12911;DHT22;6523;49.758;6.120;2022-09-12T06:08:41;11.40;99.90
12911;DHT22;6523;49.758;6.120;2022-09-12T06:11:09;11.30;99.90
12911;DHT22;6523;49.758;6.120;2022-09-12T06:13:37;11.30;99.90
12911;DHT22;6523;49.758;6.120;2022-09-12T06:16:13;11.30;99.90
12911;DHT22;6523;49.758;6.120;2022-09-12T06:18:39;11.40;99.90
12911;DHT22;6523;49.758;6.120;2022-09-12T06:21:10;11.60;99.90
12911;DHT22;6523;49.758;6.120;2022-09-12T06:23:36;11.50;99.90
12911;DHT22;6523;49.758;6.120;2022-09-12T06:26:03;11.70;99.90
12911;DHT22;6523;49.758;6.120;2022-09-12T06:28:30;11.90;99.90
12911;DHT22;6523;49.758;6.120;2022-09-12T06:31:13;11.80;99.90
12911;DHT22;6523;49.758;6.120;2022-09-12T06:33:41;11.40;99.90
12911;DHT22;6523;49.758;6.120;2022-09-12T06:36:10;11.60;99.90
12911;DHT22;6523;49.758;6.120;2022-09-12T06:38:37;11.40;99.90
12911;DHT22;6523;49.758;6.120;2022-09-12T06:41:08;11.70;99.90
12911;DHT22;6523;49.758;6.120;2022-09-12T06:43:34;11.80;99.90
12911;DHT22;6523;49.758;6.120;2022-09-12T06:46:00;11.90;99.90
12911;DHT22;6523;49.758;6.120;2022-09-12T06:48:27;12.00;99.90
12911;DHT22;6523;49.758;6.120;2022-09-12T06:50:56;11.80;99.90
12911;DHT22;6523;49.758;6.120;2022-09-12T06:53:23;11.70;99.90
12911;DHT22;6523;49.758;6.120;2022-09-12T06:55:59;12.00;99.90
12911;DHT22;6523;49.758;6.120;2022-09-12T06:58:26;11.80;99.90
12911;DHT22;6523;49.758;6.120;2022-09-12T07:00:59;11.70;99.90
12911;DHT22;6523;49.758;6.120;2022-09-12T07:03:26;11.70;99.90
12911;DHT22;6523;49.758;6.120;2022-09-12T07:05:51;11.90;99.90
12911;DHT22;6523;49.758;6.120;2022-09-12T07:08:17;12.30;99.90
12911;DHT22;6523;49.758;6.120;2022-09-12T07:10:42;11.90;99.90
12911;DHT22;6523;49.758;6.120;2022-09-12T07:13:08;11.90;99.90
12911;DHT22;6523;49.758;6.120;2022-09-12T07:15:34;12.20;99.90
12911;DHT22;6523;49.758;6.120;2022-09-12T07:18:01;12.50;99.90
12911;DHT22;6523;49.758;6.120;2022-09-12T07:20:26;12.70;99.90
12911;DHT22;6523;49.758;6.120;2022-09-12T07:22:52;12.80;99.90
12911;DHT22;6523;49.758;6.120;2022-09-12T07:25:17;13.00;99.90
12911;DHT22;6523;49.758;6.120;2022-09-12T07:27:43;12.90;99.90
12911;DHT22;6523;49.758;6.120;2022-09-12T07:30:09;12.20;99.90
12911;DHT22;6523;49.758;6.120;2022-09-12T07:32:35;12.10;99.90
12911;DHT22;6523;49.758;6.120;2022-09-12T07:35:00;12.10;99.90
12911;DHT22;6523;49.758;6.120;2022-09-12T07:37:29;12.10;99.90
12911;DHT22;6523;49.758;6.120;2022-09-12T07:39:56;12.30;99.90
12911;DHT22;6523;49.758;6.120;2022-09-12T07:42:22;12.60;99.90
12911;DHT22;6523;49.758;6.120;2022-09-12T07:44:47;12.70;99.90
12911;DHT22;6523;49.758;6.120;2022-09-12T07:47:14;12.90;99.90
12911;DHT22;6523;49.758;6.120;2022-09-12T07:49:40;12.50;99.90
12911;DHT22;6523;49.758;6.120;2022-09-12T07:52:05;12.50;99.90
12911;DHT22;6523;49.758;6.120;2022-09-12T07:54:31;12.60;99.90
12911;DHT22;6523;49.758;6.120;2022-09-12T07:56:57;12.60;99.90
12911;DHT22;6523;49.758;6.120;2022-09-12T07:59:23;12.90;99.90
12911;DHT22;6523;49.758;6.120;2022-09-12T08:01:49;13.20;99.90
12911;DHT22;6523;49.758;6.120;2022-09-12T08:04:14;13.30;99.90
12911;DHT22;6523;49.758;6.120;2022-09-12T08:06:40;13.40;99.90
12911;DHT22;6523;49.758;6.120;2022-09-12T08:09:05;13.40;99.90
12911;DHT22;6523;49.758;6.120;2022-09-12T08:11:32;13.50;99.90
12911;DHT22;6523;49.758;6.120;2022-09-12T08:13:57;13.50;99.90
12911;DHT22;6523;49.758;6.120;2022-09-12T08:16:26;13.60;99.90
12911;DHT22;6523;49.758;6.120;2022-09-12T08:18:52;13.60;99.90
12911;DHT22;6523;49.758;6.120;2022-09-12T08:21:23;13.60;99.90
12911;DHT22;6523;49.758;6.120;2022-09-12T08:23:54;13.60;99.90
12911;DHT22;6523;49.758;6.120;2022-09-12T08:26:20;13.90;99.90
12911;DHT22;6523;49.758;6.120;2022-09-12T08:28:46;14.00;99.90
12911;DHT22;6523;49.758;6.120;2022-09-12T08:31:14;13.90;99.90
12911;DHT22;6523;49.758;6.120;2022-09-12T08:33:40;13.70;99.90
12911;DHT22;6523;49.758;6.120;2022-09-12T08:36:14;13.80;99.90
12911;DHT22;6523;49.758;6.120;2022-09-12T08:38:43;13.80;99.90
12911;DHT22;6523;49.758;6.120;2022-09-12T08:44:04;14.10;99.90
12911;DHT22;6523;49.758;6.120;2022-09-12T08:52:04;14.40;99.90
12911;DHT22;6523;49.758;6.120;2022-09-12T08:54:31;14.50;99.90
12911;DHT22;6523;49.758;6.120;2022-09-12T08:57:01;15.00;99.90
12911;DHT22;6523;49.758;6.120;2022-09-12T08:59:38;15.20;99.90
12911;DHT22;6523;49.758;6.120;2022-09-12T09:05:11;15.50;99.90
12911;DHT22;6523;49.758;6.120;2022-09-12T09:07:58;16.00;99.90
12911;DHT22;6523;49.758;6.120;2022-09-12T09:10:45;16.10;99.90
12911;DHT22;6523;49.758;6.120;2022-09-12T09:16:30;16.40;99.90
12911;DHT22;6523;49.758;6.120;2022-09-12T09:19:03;16.50;99.90
12911;DHT22;6523;49.758;6.120;2022-09-12T09:24:19;16.90;99.90
12911;DHT22;6523;49.758;6.120;2022-09-12T09:27:02;17.40;99.90
12911;DHT22;6523;49.758;6.120;2022-09-12T09:29:37;18.00;99.90
12911;DHT22;6523;49.758;6.120;2022-09-12T09:32:13;18.40;99.90
12911;DHT22;6523;49.758;6.120;2022-09-12T09:34:41;18.70;99.90
12911;DHT22;6523;49.758;6.120;2022-09-12T09:37:26;19.00;99.90
12911;DHT22;6523;49.758;6.120;2022-09-12T09:45:13;18.80;99.90
12911;DHT22;6523;49.758;6.120;2022-09-12T09:47:43;19.00;99.90
12911;DHT22;6523;49.758;6.120;2022-09-12T09:50:14;19.30;99.90
12911;DHT22;6523;49.758;6.120;2022-09-12T09:52:41;19.30;99.90
12911;DHT22;6523;49.758;6.120;2022-09-12T09:55:19;19.50;99.90
12911;DHT22;6523;49.758;6.120;2022-09-12T09:57:47;19.90;99.90
12911;DHT22;6523;49.758;6.120;2022-09-12T10:00:28;19.80;99.90
12911;DHT22;6523;49.758;6.120;2022-09-12T10:05:28;20.60;99.90
12911;DHT22;6523;49.758;6.120;2022-09-12T10:07:54;20.70;99.90
12911;DHT22;6523;49.758;6.120;2022-09-12T10:10:20;20.90;99.90
12911;DHT22;6523;49.758;6.120;2022-09-12T10:12:48;21.60;99.90
12911;DHT22;6523;49.758;6.120;2022-09-12T10:15:25;21.60;99.90
12911;DHT22;6523;49.758;6.120;2022-09-12T10:17:51;21.40;99.90
12911;DHT22;6523;49.758;6.120;2022-09-12T10:20:44;21.80;99.90
12911;DHT22;6523;49.758;6.120;2022-09-12T10:23:29;22.10;99.90
12911;DHT22;6523;49.758;6.120;2022-09-12T10:25:59;21.80;99.90
12911;DHT22;6523;49.758;6.120;2022-09-12T10:28:34;22.40;99.90
12911;DHT22;6523;49.758;6.120;2022-09-12T10:31:02;22.30;99.90
12911;DHT22;6523;49.758;6.120;2022-09-12T10:33:28;22.40;99.90
12911;DHT22;6523;49.758;6.120;2022-09-12T10:35:55;22.70;99.90
12911;DHT22;6523;49.758;6.120;2022-09-12T10:38:30;22.60;99.90
12911;DHT22;6523;49.758;6.120;2022-09-12T10:41:03;23.20;99.90
12911;DHT22;6523;49.758;6.120;2022-09-12T10:46:19;23.40;99.90
12911;DHT22;6523;49.758;6.120;2022-09-12T10:48:46;23.20;99.90
12911;DHT22;6523;49.758;6.120;2022-09-12T10:53:52;23.20;99.90
12911;DHT22;6523;49.758;6.120;2022-09-12T10:56:20;23.50;99.90
12911;DHT22;6523;49.758;6.120;2022-09-12T11:01:44;24.70;99.90
12911;DHT22;6523;49.758;6.120;2022-09-12T11:04:38;24.20;99.90
12911;DHT22;6523;49.758;6.120;2022-09-12T11:07:28;24.00;99.90
12911;DHT22;6523;49.758;6.120;2022-09-12T11:12:52;24.00;99.90
12911;DHT22;6523;49.758;6.120;2022-09-12T11:20:58;24.50;99.90
12911;DHT22;6523;49.758;6.120;2022-09-12T11:23:47;24.80;99.90
12911;DHT22;6523;49.758;6.120;2022-09-12T11:26:46;25.30;99.90
12911;DHT22;6523;49.758;6.120;2022-09-12T11:37:56;25.00;99.90
12911;DHT22;6523;49.758;6.120;2022-09-12T11:40:26;25.50;99.90
12911;DHT22;6523;49.758;6.120;2022-09-12T11:42:58;24.90;99.90
12911;DHT22;6523;49.758;6.120;2022-09-12T11:45:29;24.80;99.90
12911;DHT22;6523;49.758;6.120;2022-09-12T11:48:02;24.90;99.90
12911;DHT22;6523;49.758;6.120;2022-09-12T11:50:30;24.70;99.90
12911;DHT22;6523;49.758;6.120;2022-09-12T11:53:02;24.90;99.90
12911;DHT22;6523;49.758;6.120;2022-09-12T11:55:36;24.70;99.90
12911;DHT22;6523;49.758;6.120;2022-09-12T11:58:03;25.20;99.90
12911;DHT22;6523;49.758;6.120;2022-09-12T12:00:46;24.80;99.90
12911;DHT22;6523;49.758;6.120;2022-09-12T12:03:40;25.20;99.90
12911;DHT22;6523;49.758;6.120;2022-09-12T12:06:18;25.20;99.90
12911;DHT22;6523;49.758;6.120;2022-09-12T12:08:46;24.90;99.90
12911;DHT22;6523;49.758;6.120;2022-09-12T12:11:32;24.90;99.90
12911;DHT22;6523;49.758;6.120;2022-09-12T12:14:06;25.20;99.90
12911;DHT22;6523;49.758;6.120;2022-09-12T12:16:38;25.00;99.90
12911;DHT22;6523;49.758;6.120;2022-09-12T12:21:39;25.30;99.90
12911;DHT22;6523;49.758;6.120;2022-09-12T12:29:12;25.30;99.90
12911;DHT22;6523;49.758;6.120;2022-09-12T12:36:57;25.90;99.90
12911;DHT22;6523;49.758;6.120;2022-09-12T12:42:01;25.40;99.90
12911;DHT22;6523;49.758;6.120;2022-09-12T12:44:48;25.80;99.90
12911;DHT22;6523;49.758;6.120;2022-09-12T12:47:31;25.90;99.90
12911;DHT22;6523;49.758;6.120;2022-09-12T12:50:07;26.40;99.90
12911;DHT22;6523;49.758;6.120;2022-09-12T12:53:03;26.80;99.90
12911;DHT22;6523;49.758;6.120;2022-09-12T12:58:34;26.10;99.90
12911;DHT22;6523;49.758;6.120;2022-09-12T13:01:14;26.10;99.90
12911;DHT22;6523;49.758;6.120;2022-09-12T13:03:51;26.10;99.90
12911;DHT22;6523;49.758;6.120;2022-09-12T13:06:32;26.20;99.90
12911;DHT22;6523;49.758;6.120;2022-09-12T13:09:07;26.20;99.90
12911;DHT22;6523;49.758;6.120;2022-09-12T13:11:37;26.70;99.90
12911;DHT22;6523;49.758;6.120;2022-09-12T13:14:50;25.90;99.90
12911;DHT22;6523;49.758;6.120;2022-09-12T13:16:55;26.10;99.90
12911;DHT22;6523;49.758;6.120;2022-09-12T13:19:27;26.00;99.90
12911;DHT22;6523;49.758;6.120;2022-09-12T13:22:01;26.30;99.90
12911;DHT22;6523;49.758;6.120;2022-09-12T13:24:27;26.20;99.90
12911;DHT22;6523;49.758;6.120;2022-09-12T13:26:53;26.30;99.90
12911;DHT22;6523;49.758;6.120;2022-09-12T13:29:21;26.40;99.90
12911;DHT22;6523;49.758;6.120;2022-09-12T13:31:57;26.40;99.90
12911;DHT22;6523;49.758;6.120;2022-09-12T13:34:29;26.20;99.90
12911;DHT22;6523;49.758;6.120;2022-09-12T13:37:29;25.90;99.90
12911;DHT22;6523;49.758;6.120;2022-09-12T13:43:04;27.20;99.90
12911;DHT22;6523;49.758;6.120;2022-09-12T13:45:34;26.30;99.90
12911;DHT22;6523;49.758;6.120;2022-09-12T13:48:01;26.40;99.90
12911;DHT22;6523;49.758;6.120;2022-09-12T13:50:38;26.20;99.90
12911;DHT22;6523;49.758;6.120;2022-09-12T13:53:14;26.40;99.90
12911;DHT22;6523;49.758;6.120;2022-09-12T13:55:44;27.40;99.90
12911;DHT22;6523;49.758;6.120;2022-09-12T13:58:26;26.90;99.90
12911;DHT22;6523;49.758;6.120;2022-09-12T14:01:14;26.80;94.90
12911;DHT22;6523;49.758;6.120;2022-09-12T14:03:42;27.00;92.70
12911;DHT22;6523;49.758;6.120;2022-09-12T14:06:51;27.80;98.00
12911;DHT22;6523;49.758;6.120;2022-09-12T14:09:23;27.80;90.00
12911;DHT22;6523;49.758;6.120;2022-09-12T14:11:50;27.60;64.60
12911;DHT22;6523;49.758;6.120;2022-09-12T14:14:36;27.00;52.00
12911;DHT22;6523;49.758;6.120;2022-09-12T14:17:27;27.00;38.20
12911;DHT22;6523;49.758;6.120;2022-09-12T14:19:54;27.20;47.00
12911;DHT22;6523;49.758;6.120;2022-09-12T14:22:24;27.10;40.80
12911;DHT22;6523;49.758;6.120;2022-09-12T14:24:51;27.10;33.00
12911;DHT22;6523;49.758;6.120;2022-09-12T14:27:22;27.40;37.40
12911;DHT22;6523;49.758;6.120;2022-09-12T14:30:30;27.80;37.70
12911;DHT22;6523;49.758;6.120;2022-09-12T14:35:45;27.90;25.40
12911;DHT22;6523;49.758;6.120;2022-09-12T14:38:20;27.40;24.00
12911;DHT22;6523;49.758;6.120;2022-09-12T14:40:49;27.20;20.00
12911;DHT22;6523;49.758;6.120;2022-09-12T14:43:24;27.70;24.40
12911;DHT22;6523;49.758;6.120;2022-09-12T14:45:56;27.50;9.90
12911;DHT22;6523;49.758;6.120;2022-09-12T14:48:24;27.40;8.30
12911;DHT22;6523;49.758;6.120;2022-09-12T14:50:51;27.20;4.80
12911;DHT22;6523;49.758;6.120;2022-09-12T14:58:22;27.20;1.00
12911;DHT22;6523;49.758;6.120;2022-09-12T15:03:33;27.10;1.00
12911;DHT22;6523;49.758;6.120;2022-09-12T15:06:00;27.20;2.60
12911;DHT22;6523;49.758;6.120;2022-09-12T15:08:28;27.90;1.00
12911;DHT22;6523;49.758;6.120;2022-09-12T15:10:54;27.70;1.00
12911;DHT22;6523;49.758;6.120;2022-09-12T15:13:22;28.10;1.00
12911;DHT22;6523;49.758;6.120;2022-09-12T15:15:54;28.40;1.00
12911;DHT22;6523;49.758;6.120;2022-09-12T15:18:22;28.10;1.00
12911;DHT22;6523;49.758;6.120;2022-09-12T15:20:51;28.00;1.00
12911;DHT22;6523;49.758;6.120;2022-09-12T15:23:33;28.00;1.00
12911;DHT22;6523;49.758;6.120;2022-09-12T15:26:00;27.20;1.00
12911;DHT22;6523;49.758;6.120;2022-09-12T15:28:28;26.90;1.00
12911;DHT22;6523;49.758;6.120;2022-09-12T15:30:55;27.50;1.00
12911;DHT22;6523;49.758;6.120;2022-09-12T15:33:23;27.70;1.00
12911;DHT22;6523;49.758;6.120;2022-09-12T15:35:50;27.80;1.00
12911;DHT22;6523;49.758;6.120;2022-09-12T15:38:16;28.00;2.70
12911;DHT22;6523;49.758;6.120;2022-09-12T15:40:43;28.60;1.00
12911;DHT22;6523;49.758;6.120;2022-09-12T15:43:11;28.50;1.00
12911;DHT22;6523;49.758;6.120;2022-09-12T15:45:40;28.20;1.00
12911;DHT22;6523;49.758;6.120;2022-09-12T15:48:06;27.50;1.00
12911;DHT22;6523;49.758;6.120;2022-09-12T15:50:32;26.70;1.00
12911;DHT22;6523;49.758;6.120;2022-09-12T15:52:58;26.50;1.00
12911;DHT22;6523;49.758;6.120;2022-09-12T15:55:27;26.50;1.00
12911;DHT22;6523;49.758;6.120;2022-09-12T15:57:53;26.90;1.00
12911;DHT22;6523;49.758;6.120;2022-09-12T16:00:19;27.10;1.00
12911;DHT22;6523;49.758;6.120;2022-09-12T16:02:50;27.40;1.00
12911;DHT22;6523;49.758;6.120;2022-09-12T16:05:23;26.90;1.00
12911;DHT22;6523;49.758;6.120;2022-09-12T16:07:53;26.70;1.00
12911;DHT22;6523;49.758;6.120;2022-09-12T16:10:22;26.60;1.00
12911;DHT22;6523;49.758;6.120;2022-09-12T16:12:48;26.70;1.00
12911;DHT22;6523;49.758;6.120;2022-09-12T16:15:19;26.50;1.00
12911;DHT22;6523;49.758;6.120;2022-09-12T16:17:45;27.50;1.00
12911;DHT22;6523;49.758;6.120;2022-09-12T16:20:11;27.30;1.00
12911;DHT22;6523;49.758;6.120;2022-09-12T16:22:37;26.50;1.00
12911;DHT22;6523;49.758;6.120;2022-09-12T16:25:03;26.50;1.00
12911;DHT22;6523;49.758;6.120;2022-09-12T16:27:30;26.70;1.00
12911;DHT22;6523;49.758;6.120;2022-09-12T16:29:55;26.40;1.00
12911;DHT22;6523;49.758;6.120;2022-09-12T16:32:21;26.10;1.00
12911;DHT22;6523;49.758;6.120;2022-09-12T16:34:46;26.30;1.00
12911;DHT22;6523;49.758;6.120;2022-09-12T16:37:12;26.70;10.00
12911;DHT22;6523;49.758;6.120;2022-09-12T16:39:37;27.00;1.00
12911;DHT22;6523;49.758;6.120;2022-09-12T16:42:03;27.10;20.50
12911;DHT22;6523;49.758;6.120;2022-09-12T16:44:29;26.80;39.80
12911;DHT22;6523;49.758;6.120;2022-09-12T16:46:54;26.50;51.00
12911;DHT22;6523;49.758;6.120;2022-09-12T16:49:20;26.20;55.80
12911;DHT22;6523;49.758;6.120;2022-09-12T16:51:46;26.20;50.80
12911;DHT22;6523;49.758;6.120;2022-09-12T16:54:15;26.30;51.30
12911;DHT22;6523;49.758;6.120;2022-09-12T16:56:42;25.80;54.20
12911;DHT22;6523;49.758;6.120;2022-09-12T16:59:08;25.40;60.30
12911;DHT22;6523;49.758;6.120;2022-09-12T17:01:36;25.10;62.70
12911;DHT22;6523;49.758;6.120;2022-09-12T17:04:02;25.00;68.00
12911;DHT22;6523;49.758;6.120;2022-09-12T17:06:28;24.80;77.30
12911;DHT22;6523;49.758;6.120;2022-09-12T17:08:57;24.50;88.90
12911;DHT22;6523;49.758;6.120;2022-09-12T17:11:36;24.40;82.40
12911;DHT22;6523;49.758;6.120;2022-09-12T17:14:04;24.20;68.80
12911;DHT22;6523;49.758;6.120;2022-09-12T17:16:31;24.20;73.70
12911;DHT22;6523;49.758;6.120;2022-09-12T17:18:57;24.00;73.50
12911;DHT22;6523;49.758;6.120;2022-09-12T17:21:23;23.60;85.50
12911;DHT22;6523;49.758;6.120;2022-09-12T17:23:48;23.20;93.80
12911;DHT22;6523;49.758;6.120;2022-09-12T17:26:15;22.80;97.20
12911;DHT22;6523;49.758;6.120;2022-09-12T17:28:40;22.90;99.90
12911;DHT22;6523;49.758;6.120;2022-09-12T17:31:09;22.50;98.50
12911;DHT22;6523;49.758;6.120;2022-09-12T17:33:35;22.40;99.60
12911;DHT22;6523;49.758;6.120;2022-09-12T17:36:02;22.20;99.20
12911;DHT22;6523;49.758;6.120;2022-09-12T17:38:31;22.00;99.90
12911;DHT22;6523;49.758;6.120;2022-09-12T17:41:07;21.80;99.90
12911;DHT22;6523;49.758;6.120;2022-09-12T17:43:34;21.50;99.90
12911;DHT22;6523;49.758;6.120;2022-09-12T17:46:05;21.30;99.90
12911;DHT22;6523;49.758;6.120;2022-09-12T17:48:32;21.20;99.90
12911;DHT22;6523;49.758;6.120;2022-09-12T17:50:57;21.10;99.90
12911;DHT22;6523;49.758;6.120;2022-09-12T17:53:23;21.10;99.90
12911;DHT22;6523;49.758;6.120;2022-09-12T17:55:50;20.70;99.90
12911;DHT22;6523;49.758;6.120;2022-09-12T17:58:16;20.70;99.90
12911;DHT22;6523;49.758;6.120;2022-09-12T18:00:41;20.70;99.90
12911;DHT22;6523;49.758;6.120;2022-09-12T18:03:25;20.60;99.90
12911;DHT22;6523;49.758;6.120;2022-09-12T18:05:54;20.40;99.90
12911;DHT22;6523;49.758;6.120;2022-09-12T18:08:21;20.10;99.90